sensor_id;sensor_type;location;lat;lon;timestamp;temperature;humidity
66140;DHT22;52945;51.908;8.364;2023-12-20T00:02:05;9.80;83.70
66140;DHT22;52945;51.908;8.364;2023-12-20T00:05:06;9.70;83.70
66140;DHT22;52945;51.908;8.364;2023-12-20T00:08:06;9.80;83.70
66140;DHT22;52945;51.908;8.364;2023-12-20T00:11:07;9.70;83.60
66140;DHT22;52945;51.908;8.364;2023-12-20T00:14:08;9.80;83.50
66140;DHT22;52945;51.908;8.364;2023-12-20T00:17:08;9.80;83.50
66140;DHT22;52945;51.908;8.364;2023-12-20T00:20:09;9.70;83.60
66140;DHT22;52945;51.908;8.364;2023-12-20T00:23:10;9.80;83.40
66140;DHT22;52945;51.908;8.364;2023-12-20T00:26:10;9.70;83.40
66140;DHT22;52945;51.908;8.364;2023-12-20T00:29:11;9.70;83.30
66140;DHT22;52945;51.908;8.364;2023-12-20T00:32:12;9.70;83.20
66140;DHT22;52945;51.908;8.364;2023-12-20T00:35:13;9.70;83.50
66140;DHT22;52945;51.908;8.364;2023-12-20T00:38:14;9.60;83.30
66140;DHT22;52945;51.908;8.364;2023-12-20T00:41:15;9.70;83.30
66140;DHT22;52945;51.908;8.364;2023-12-20T00:44:15;9.60;83.10
66140;DHT22;52945;51.908;8.364;2023-12-20T00:47:16;9.70;83.10
66140;DHT22;52945;51.908;8.364;2023-12-20T00:50:16;9.60;83.00
66140;DHT22;52945;51.908;8.364;2023-12-20T00:53:17;9.60;83.00
66140;DHT22;52945;51.908;8.364;2023-12-20T00:56:17;9.60;83.00
66140;DHT22;52945;51.908;8.364;2023-12-20T00:59:19;9.50;83.00
66140;DHT22;52945;51.908;8.364;2023-12-20T01:02:20;9.50;82.90
66140;DHT22;52945;51.908;8.364;2023-12-20T01:05:20;9.40;82.60
66140;DHT22;52945;51.908;8.364;2023-12-20T01:08:23;9.40;82.80
66140;DHT22;52945;51.908;8.364;2023-12-20T01:11:24;9.40;82.80
66140;DHT22;52945;51.908;8.364;2023-12-20T01:14:24;9.40;82.70
66140;DHT22;52945;51.908;8.364;2023-12-20T01:17:25;9.40;82.70
66140;DHT22;52945;51.908;8.364;2023-12-20T01:20:25;9.30;82.60
66140;DHT22;52945;51.908;8.364;2023-12-20T01:23:26;9.30;82.50
66140;DHT22;52945;51.908;8.364;2023-12-20T01:26:27;9.20;82.70
66140;DHT22;52945;51.908;8.364;2023-12-20T01:29:28;9.20;82.60
66140;DHT22;52945;51.908;8.364;2023-12-20T01:32:28;9.20;82.70
66140;DHT22;52945;51.908;8.364;2023-12-20T01:35:29;9.20;82.40
66140;DHT22;52945;51.908;8.364;2023-12-20T01:38:29;9.20;82.70
66140;DHT22;52945;51.908;8.364;2023-12-20T01:41:30;9.20;82.70
66140;DHT22;52945;51.908;8.364;2023-12-20T01:44:30;9.20;82.70
66140;DHT22;52945;51.908;8.364;2023-12-20T01:47:31;9.20;82.70
66140;DHT22;52945;51.908;8.364;2023-12-20T01:50:32;9.10;82.20
66140;DHT22;52945;51.908;8.364;2023-12-20T01:53:36;9.10;82.50
66140;DHT22;52945;51.908;8.364;2023-12-20T01:56:37;9.10;82.50
66140;DHT22;52945;51.908;8.364;2023-12-20T01:59:39;9.10;82.70
66140;DHT22;52945;51.908;8.364;2023-12-20T02:02:40;9.10;82.70
66140;DHT22;52945;51.908;8.364;2023-12-20T02:05:41;9.10;82.60
66140;DHT22;52945;51.908;8.364;2023-12-20T02:08:42;9.00;82.50
66140;DHT22;52945;51.908;8.364;2023-12-20T02:11:43;9.00;82.50
66140;DHT22;52945;51.908;8.364;2023-12-20T02:14:44;9.00;82.40
66140;DHT22;52945;51.908;8.364;2023-12-20T02:17:45;8.90;82.30
66140;DHT22;52945;51.908;8.364;2023-12-20T02:20:48;8.90;82.30
66140;DHT22;52945;51.908;8.364;2023-12-20T02:23:49;8.90;82.30
66140;DHT22;52945;51.908;8.364;2023-12-20T02:26:50;8.90;82.20
66140;DHT22;52945;51.908;8.364;2023-12-20T02:29:51;8.90;82.30
66140;DHT22;52945;51.908;8.364;2023-12-20T02:32:53;8.80;82.10
66140;DHT22;52945;51.908;8.364;2023-12-20T02:35:54;8.80;82.00
66140;DHT22;52945;51.908;8.364;2023-12-20T02:38:54;8.80;81.90
66140;DHT22;52945;51.908;8.364;2023-12-20T02:41:55;8.70;82.30
66140;DHT22;52945;51.908;8.364;2023-12-20T02:44:55;8.80;82.20
66140;DHT22;52945;51.908;8.364;2023-12-20T02:47:56;8.70;82.20
66140;DHT22;52945;51.908;8.364;2023-12-20T02:50:56;8.70;82.10
66140;DHT22;52945;51.908;8.364;2023-12-20T02:53:57;8.60;81.90
66140;DHT22;52945;51.908;8.364;2023-12-20T02:56:57;8.60;82.10
66140;DHT22;52945;51.908;8.364;2023-12-20T02:59:58;8.60;82.00
66140;DHT22;52945;51.908;8.364;2023-12-20T03:02:59;8.60;82.10
66140;DHT22;52945;51.908;8.364;2023-12-20T03:06:00;8.60;82.10
66140;DHT22;52945;51.908;8.364;2023-12-20T03:09:00;8.60;82.20
66140;DHT22;52945;51.908;8.364;2023-12-20T03:12:01;8.50;82.20
66140;DHT22;52945;51.908;8.364;2023-12-20T03:15:01;8.50;82.20
66140;DHT22;52945;51.908;8.364;2023-12-20T03:18:02;8.50;82.20
66140;DHT22;52945;51.908;8.364;2023-12-20T03:21:04;8.50;82.30
66140;DHT22;52945;51.908;8.364;2023-12-20T03:24:04;8.40;82.20
66140;DHT22;52945;51.908;8.364;2023-12-20T03:27:05;8.40;82.20
66140;DHT22;52945;51.908;8.364;2023-12-20T03:30:06;8.50;82.40
66140;DHT22;52945;51.908;8.364;2023-12-20T03:33:07;8.50;82.50
66140;DHT22;52945;51.908;8.364;2023-12-20T03:36:08;8.40;82.50
66140;DHT22;52945;51.908;8.364;2023-12-20T03:39:08;8.50;82.40
66140;DHT22;52945;51.908;8.364;2023-12-20T03:42:10;8.40;82.40
66140;DHT22;52945;51.908;8.364;2023-12-20T03:45:11;8.40;82.20
66140;DHT22;52945;51.908;8.364;2023-12-20T03:48:11;8.40;82.40
66140;DHT22;52945;51.908;8.364;2023-12-20T03:51:12;8.40;82.40
66140;DHT22;52945;51.908;8.364;2023-12-20T03:54:12;8.30;82.00
66140;DHT22;52945;51.908;8.364;2023-12-20T03:57:13;8.30;82.00
66140;DHT22;52945;51.908;8.364;2023-12-20T04:00:14;8.30;82.10
66140;DHT22;52945;51.908;8.364;2023-12-20T04:03:15;8.30;82.10
66140;DHT22;52945;51.908;8.364;2023-12-20T04:06:18;8.40;82.00
66140;DHT22;52945;51.908;8.364;2023-12-20T04:09:19;8.40;82.00
66140;DHT22;52945;51.908;8.364;2023-12-20T04:12:19;8.30;82.00
66140;DHT22;52945;51.908;8.364;2023-12-20T04:15:20;8.40;82.10
66140;DHT22;52945;51.908;8.364;2023-12-20T04:18:21;8.40;82.10
66140;DHT22;52945;51.908;8.364;2023-12-20T04:21:21;8.30;82.00
66140;DHT22;52945;51.908;8.364;2023-12-20T04:24:22;8.40;81.90
66140;DHT22;52945;51.908;8.364;2023-12-20T04:27:23;8.30;81.90
66140;DHT22;52945;51.908;8.364;2023-12-20T04:30:23;8.30;81.60
66140;DHT22;52945;51.908;8.364;2023-12-20T04:33:24;8.30;81.70
66140;DHT22;52945;51.908;8.364;2023-12-20T04:36:25;8.20;81.50
66140;DHT22;52945;51.908;8.364;2023-12-20T04:39:27;8.20;81.70
66140;DHT22;52945;51.908;8.364;2023-12-20T04:42:27;8.20;81.70
66140;DHT22;52945;51.908;8.364;2023-12-20T04:45:28;8.30;81.70
66140;DHT22;52945;51.908;8.364;2023-12-20T04:48:28;8.40;81.80
66140;DHT22;52945;51.908;8.364;2023-12-20T04:51:29;8.30;81.70
66140;DHT22;52945;51.908;8.364;2023-12-20T04:54:31;8.30;81.70
66140;DHT22;52945;51.908;8.364;2023-12-20T04:57:32;8.20;81.60
66140;DHT22;52945;51.908;8.364;2023-12-20T05:00:32;8.20;81.60
66140;DHT22;52945;51.908;8.364;2023-12-20T05:03:33;8.30;81.80
66140;DHT22;52945;51.908;8.364;2023-12-20T05:06:33;8.20;81.60
66140;DHT22;52945;51.908;8.364;2023-12-20T05:09:34;8.20;81.40
66140;DHT22;52945;51.908;8.364;2023-12-20T05:12:34;8.20;81.70
66140;DHT22;52945;51.908;8.364;2023-12-20T05:15:35;8.20;81.60
66140;DHT22;52945;51.908;8.364;2023-12-20T05:18:36;8.30;81.40
66140;DHT22;52945;51.908;8.364;2023-12-20T05:21:36;8.20;81.30
66140;DHT22;52945;51.908;8.364;2023-12-20T05:24:37;8.20;81.30
66140;DHT22;52945;51.908;8.364;2023-12-20T05:27:37;8.20;81.60
66140;DHT22;52945;51.908;8.364;2023-12-20T05:30:38;8.20;81.40
66140;DHT22;52945;51.908;8.364;2023-12-20T05:33:38;8.20;81.40
66140;DHT22;52945;51.908;8.364;2023-12-20T05:36:39;8.20;81.30
66140;DHT22;52945;51.908;8.364;2023-12-20T05:39:39;8.20;81.40
66140;DHT22;52945;51.908;8.364;2023-12-20T05:42:40;8.20;81.40
66140;DHT22;52945;51.908;8.364;2023-12-20T05:45:41;8.20;81.30
66140;DHT22;52945;51.908;8.364;2023-12-20T05:48:42;8.20;81.40
66140;DHT22;52945;51.908;8.364;2023-12-20T05:51:43;8.20;81.40
66140;DHT22;52945;51.908;8.364;2023-12-20T05:54:43;8.20;81.30
66140;DHT22;52945;51.908;8.364;2023-12-20T05:57:44;8.10;81.40
66140;DHT22;52945;51.908;8.364;2023-12-20T06:00:44;8.20;81.10
66140;DHT22;52945;51.908;8.364;2023-12-20T06:03:45;8.20;81.30
66140;DHT22;52945;51.908;8.364;2023-12-20T06:06:48;8.20;81.00
66140;DHT22;52945;51.908;8.364;2023-12-20T06:09:49;8.10;81.10
66140;DHT22;52945;51.908;8.364;2023-12-20T06:12:50;8.20;81.20
66140;DHT22;52945;51.908;8.364;2023-12-20T06:15:51;8.30;81.20
66140;DHT22;52945;51.908;8.364;2023-12-20T06:18:52;8.20;81.10
66140;DHT22;52945;51.908;8.364;2023-12-20T06:21:53;8.20;81.00
66140;DHT22;52945;51.908;8.364;2023-12-20T06:24:53;8.20;81.30
66140;DHT22;52945;51.908;8.364;2023-12-20T06:27:54;8.20;81.30
66140;DHT22;52945;51.908;8.364;2023-12-20T06:30:54;8.20;81.00
66140;DHT22;52945;51.908;8.364;2023-12-20T06:33:55;8.20;81.20
66140;DHT22;52945;51.908;8.364;2023-12-20T06:36:57;8.20;81.40
66140;DHT22;52945;51.908;8.364;2023-12-20T06:39:58;8.20;81.30
66140;DHT22;52945;51.908;8.364;2023-12-20T06:42:59;8.20;81.30
66140;DHT22;52945;51.908;8.364;2023-12-20T06:46:03;8.10;81.10
66140;DHT22;52945;51.908;8.364;2023-12-20T06:49:03;8.20;81.30
66140;DHT22;52945;51.908;8.364;2023-12-20T06:52:04;8.10;81.20
66140;DHT22;52945;51.908;8.364;2023-12-20T06:55:05;8.10;81.30
66140;DHT22;52945;51.908;8.364;2023-12-20T06:58:05;8.20;81.30
66140;DHT22;52945;51.908;8.364;2023-12-20T07:01:11;8.20;81.20
66140;DHT22;52945;51.908;8.364;2023-12-20T07:04:12;8.10;81.00
66140;DHT22;52945;51.908;8.364;2023-12-20T07:07:12;8.20;81.00
66140;DHT22;52945;51.908;8.364;2023-12-20T07:10:13;8.10;81.20
66140;DHT22;52945;51.908;8.364;2023-12-20T07:13:14;8.20;81.00
66140;DHT22;52945;51.908;8.364;2023-12-20T07:16:15;8.20;81.00
66140;DHT22;52945;51.908;8.364;2023-12-20T07:19:15;8.10;80.80
66140;DHT22;52945;51.908;8.364;2023-12-20T07:22:16;8.20;80.80
66140;DHT22;52945;51.908;8.364;2023-12-20T07:25:16;8.20;80.80
66140;DHT22;52945;51.908;8.364;2023-12-20T07:28:17;8.20;80.90
66140;DHT22;52945;51.908;8.364;2023-12-20T07:31:18;8.20;80.90
66140;DHT22;52945;51.908;8.364;2023-12-20T07:34:18;8.20;80.60
66140;DHT22;52945;51.908;8.364;2023-12-20T07:37:19;8.20;80.50
66140;DHT22;52945;51.908;8.364;2023-12-20T07:40:19;8.10;80.40
66140;DHT22;52945;51.908;8.364;2023-12-20T07:43:20;8.20;80.60
66140;DHT22;52945;51.908;8.364;2023-12-20T07:46:22;8.20;80.60
66140;DHT22;52945;51.908;8.364;2023-12-20T07:49:25;8.20;80.50
66140;DHT22;52945;51.908;8.364;2023-12-20T07:52:26;8.20;80.10
66140;DHT22;52945;51.908;8.364;2023-12-20T07:55:27;8.20;80.10
66140;DHT22;52945;51.908;8.364;2023-12-20T07:58:27;8.20;80.20
66140;DHT22;52945;51.908;8.364;2023-12-20T08:01:30;8.30;80.20
66140;DHT22;52945;51.908;8.364;2023-12-20T08:04:30;8.20;80.00
66140;DHT22;52945;51.908;8.364;2023-12-20T08:07:31;8.30;79.90
66140;DHT22;52945;51.908;8.364;2023-12-20T08:10:32;8.30;79.90
66140;DHT22;52945;51.908;8.364;2023-12-20T08:13:33;8.20;79.90
66140;DHT22;52945;51.908;8.364;2023-12-20T08:16:33;8.30;80.00
66140;DHT22;52945;51.908;8.364;2023-12-20T08:19:34;8.30;79.90
66140;DHT22;52945;51.908;8.364;2023-12-20T08:22:34;8.20;79.90
66140;DHT22;52945;51.908;8.364;2023-12-20T08:25:35;8.20;79.90
66140;DHT22;52945;51.908;8.364;2023-12-20T08:28:36;8.20;79.90
66140;DHT22;52945;51.908;8.364;2023-12-20T08:31:37;8.20;80.10
66140;DHT22;52945;51.908;8.364;2023-12-20T08:34:38;8.30;80.00
66140;DHT22;52945;51.908;8.364;2023-12-20T08:37:38;8.30;80.00
66140;DHT22;52945;51.908;8.364;2023-12-20T08:40:39;8.30;80.00
66140;DHT22;52945;51.908;8.364;2023-12-20T08:43:39;8.30;80.00
66140;DHT22;52945;51.908;8.364;2023-12-20T08:46:43;8.30;79.80
66140;DHT22;52945;51.908;8.364;2023-12-20T08:49:43;8.40;79.90
66140;DHT22;52945;51.908;8.364;2023-12-20T08:52:44;8.40;79.80
66140;DHT22;52945;51.908;8.364;2023-12-20T08:55:45;8.40;79.80
66140;DHT22;52945;51.908;8.364;2023-12-20T08:58:46;8.30;79.90
66140;DHT22;52945;51.908;8.364;2023-12-20T09:01:47;8.40;79.80
66140;DHT22;52945;51.908;8.364;2023-12-20T09:04:48;8.40;79.80
66140;DHT22;52945;51.908;8.364;2023-12-20T09:07:49;8.40;79.80
66140;DHT22;52945;51.908;8.364;2023-12-20T09:10:50;8.50;79.80
66140;DHT22;52945;51.908;8.364;2023-12-20T09:13:50;8.50;79.90
66140;DHT22;52945;51.908;8.364;2023-12-20T09:16:51;8.40;80.10
66140;DHT22;52945;51.908;8.364;2023-12-20T09:19:52;8.40;80.20
66140;DHT22;52945;51.908;8.364;2023-12-20T09:22:54;8.40;80.30
66140;DHT22;52945;51.908;8.364;2023-12-20T09:25:54;8.40;80.40
66140;DHT22;52945;51.908;8.364;2023-12-20T09:28:55;8.50;80.50
66140;DHT22;52945;51.908;8.364;2023-12-20T09:31:57;8.50;80.30
66140;DHT22;52945;51.908;8.364;2023-12-20T09:34:58;8.40;80.30
66140;DHT22;52945;51.908;8.364;2023-12-20T09:37:58;8.40;80.30
66140;DHT22;52945;51.908;8.364;2023-12-20T09:40:59;8.50;80.40
66140;DHT22;52945;51.908;8.364;2023-12-20T09:44:02;8.50;80.50
66140;DHT22;52945;51.908;8.364;2023-12-20T09:47:03;8.60;80.40
66140;DHT22;52945;51.908;8.364;2023-12-20T09:50:05;8.50;80.80
66140;DHT22;52945;51.908;8.364;2023-12-20T09:53:08;8.60;80.70
66140;DHT22;52945;51.908;8.364;2023-12-20T09:56:10;8.60;80.80
66140;DHT22;52945;51.908;8.364;2023-12-20T09:59:13;8.60;80.80
66140;DHT22;52945;51.908;8.364;2023-12-20T10:02:14;8.60;81.00
66140;DHT22;52945;51.908;8.364;2023-12-20T10:05:17;8.60;80.80
66140;DHT22;52945;51.908;8.364;2023-12-20T10:08:21;8.60;80.80
66140;DHT22;52945;51.908;8.364;2023-12-20T10:11:22;8.60;80.70
66140;DHT22;52945;51.908;8.364;2023-12-20T10:14:23;8.60;80.80
66140;DHT22;52945;51.908;8.364;2023-12-20T10:17:24;8.60;80.80
66140;DHT22;52945;51.908;8.364;2023-12-20T10:20:30;8.60;80.60
66140;DHT22;52945;51.908;8.364;2023-12-20T10:23:31;8.60;80.60
66140;DHT22;52945;51.908;8.364;2023-12-20T10:26:32;8.70;80.60
66140;DHT22;52945;51.908;8.364;2023-12-20T10:29:36;8.70;80.50
66140;DHT22;52945;51.908;8.364;2023-12-20T10:32:37;8.70;80.40
66140;DHT22;52945;51.908;8.364;2023-12-20T10:35:38;8.70;80.40
66140;DHT22;52945;51.908;8.364;2023-12-20T10:38:39;8.60;80.30
66140;DHT22;52945;51.908;8.364;2023-12-20T10:41:43;8.60;80.50
66140;DHT22;52945;51.908;8.364;2023-12-20T10:44:45;8.60;80.60
66140;DHT22;52945;51.908;8.364;2023-12-20T10:47:46;8.60;80.50
66140;DHT22;52945;51.908;8.364;2023-12-20T10:50:47;8.70;80.50
66140;DHT22;52945;51.908;8.364;2023-12-20T10:53:48;8.70;80.50
66140;DHT22;52945;51.908;8.364;2023-12-20T10:56:52;8.70;80.40
66140;DHT22;52945;51.908;8.364;2023-12-20T10:59:54;8.70;80.30
66140;DHT22;52945;51.908;8.364;2023-12-20T11:02:56;8.70;80.30
66140;DHT22;52945;51.908;8.364;2023-12-20T11:06:16;8.70;80.30
66140;DHT22;52945;51.908;8.364;2023-12-20T11:09:25;8.70;80.60
66140;DHT22;52945;51.908;8.364;2023-12-20T11:12:31;8.70;80.40
66140;DHT22;52945;51.908;8.364;2023-12-20T11:15:33;8.70;80.30
66140;DHT22;52945;51.908;8.364;2023-12-20T11:18:33;8.80;80.30
66140;DHT22;52945;51.908;8.364;2023-12-20T11:21:34;8.80;80.40
66140;DHT22;52945;51.908;8.364;2023-12-20T11:24:35;8.80;80.30
66140;DHT22;52945;51.908;8.364;2023-12-20T11:27:41;8.80;80.40
66140;DHT22;52945;51.908;8.364;2023-12-20T11:30:58;8.80;80.50
66140;DHT22;52945;51.908;8.364;2023-12-20T11:34:13;8.70;80.40
66140;DHT22;52945;51.908;8.364;2023-12-20T11:37:14;8.80;80.40
66140;DHT22;52945;51.908;8.364;2023-12-20T11:40:16;8.90;80.20
66140;DHT22;52945;51.908;8.364;2023-12-20T11:43:38;8.90;80.30
66140;DHT22;52945;51.908;8.364;2023-12-20T11:46:38;8.90;80.40
66140;DHT22;52945;51.908;8.364;2023-12-20T11:49:39;9.10;80.10
66140;DHT22;52945;51.908;8.364;2023-12-20T11:52:40;9.00;80.00
66140;DHT22;52945;51.908;8.364;2023-12-20T11:55:41;9.10;80.00
66140;DHT22;52945;51.908;8.364;2023-12-20T11:58:42;9.10;79.80
66140;DHT22;52945;51.908;8.364;2023-12-20T12:01:50;9.20;79.80
66140;DHT22;52945;51.908;8.364;2023-12-20T12:04:51;9.20;79.40
66140;DHT22;52945;51.908;8.364;2023-12-20T12:07:53;9.50;79.30
66140;DHT22;52945;51.908;8.364;2023-12-20T12:10:53;9.60;79.10
66140;DHT22;52945;51.908;8.364;2023-12-20T12:13:54;9.60;78.90
66140;DHT22;52945;51.908;8.364;2023-12-20T12:16:55;9.60;77.90
66140;DHT22;52945;51.908;8.364;2023-12-20T12:20:06;9.70;78.30
66140;DHT22;52945;51.908;8.364;2023-12-20T12:23:07;9.60;77.80
66140;DHT22;52945;51.908;8.364;2023-12-20T12:26:07;9.60;77.90
66140;DHT22;52945;51.908;8.364;2023-12-20T12:29:09;9.60;77.80
66140;DHT22;52945;51.908;8.364;2023-12-20T12:32:10;9.60;77.50
66140;DHT22;52945;51.908;8.364;2023-12-20T12:35:10;9.60;77.70
66140;DHT22;52945;51.908;8.364;2023-12-20T12:38:11;9.50;77.60
66140;DHT22;52945;51.908;8.364;2023-12-20T12:41:15;9.50;77.70
66140;DHT22;52945;51.908;8.364;2023-12-20T12:44:16;9.50;77.90
66140;DHT22;52945;51.908;8.364;2023-12-20T12:47:18;9.50;77.80
66140;DHT22;52945;51.908;8.364;2023-12-20T12:50:19;9.50;77.90
66140;DHT22;52945;51.908;8.364;2023-12-20T12:53:19;9.50;77.70
66140;DHT22;52945;51.908;8.364;2023-12-20T12:56:20;9.40;77.40
66140;DHT22;52945;51.908;8.364;2023-12-20T12:59:22;9.40;77.70
66140;DHT22;52945;51.908;8.364;2023-12-20T13:02:23;9.50;77.30
66140;DHT22;52945;51.908;8.364;2023-12-20T13:05:23;9.50;77.50
66140;DHT22;52945;51.908;8.364;2023-12-20T13:08:24;9.50;77.30
66140;DHT22;52945;51.908;8.364;2023-12-20T13:11:25;9.60;77.70
66140;DHT22;52945;51.908;8.364;2023-12-20T13:14:25;9.50;77.10
66140;DHT22;52945;51.908;8.364;2023-12-20T13:17:27;9.60;77.40
66140;DHT22;52945;51.908;8.364;2023-12-20T13:20:28;9.70;77.00
66140;DHT22;52945;51.908;8.364;2023-12-20T13:23:28;9.60;77.10
66140;DHT22;52945;51.908;8.364;2023-12-20T13:26:29;9.60;76.90
66140;DHT22;52945;51.908;8.364;2023-12-20T13:29:29;9.60;76.70
66140;DHT22;52945;51.908;8.364;2023-12-20T13:32:30;9.70;77.20
66140;DHT22;52945;51.908;8.364;2023-12-20T13:35:32;9.70;76.90
66140;DHT22;52945;51.908;8.364;2023-12-20T13:38:32;9.70;76.60
66140;DHT22;52945;51.908;8.364;2023-12-20T13:41:33;9.70;76.80
66140;DHT22;52945;51.908;8.364;2023-12-20T13:44:34;9.60;76.60
66140;DHT22;52945;51.908;8.364;2023-12-20T13:47:35;9.40;77.30
66140;DHT22;52945;51.908;8.364;2023-12-20T13:50:35;9.40;77.90
66140;DHT22;52945;51.908;8.364;2023-12-20T13:53:36;9.40;77.90
66140;DHT22;52945;51.908;8.364;2023-12-20T13:56:36;9.20;78.00
66140;DHT22;52945;51.908;8.364;2023-12-20T13:59:37;9.10;78.50
66140;DHT22;52945;51.908;8.364;2023-12-20T14:02:37;9.00;78.70
66140;DHT22;52945;51.908;8.364;2023-12-20T14:05:38;9.00;79.00
66140;DHT22;52945;51.908;8.364;2023-12-20T14:08:38;8.90;78.70
66140;DHT22;52945;51.908;8.364;2023-12-20T14:11:40;8.80;79.20
66140;DHT22;52945;51.908;8.364;2023-12-20T14:14:41;8.90;79.50
66140;DHT22;52945;51.908;8.364;2023-12-20T14:17:42;8.90;79.70
66140;DHT22;52945;51.908;8.364;2023-12-20T14:20:42;8.90;79.90
66140;DHT22;52945;51.908;8.364;2023-12-20T14:23:43;8.90;80.10
66140;DHT22;52945;51.908;8.364;2023-12-20T14:26:43;8.80;80.10
66140;DHT22;52945;51.908;8.364;2023-12-20T14:29:45;8.90;80.20
66140;DHT22;52945;51.908;8.364;2023-12-20T14:32:45;8.80;80.40
66140;DHT22;52945;51.908;8.364;2023-12-20T14:35:48;8.90;80.50
66140;DHT22;52945;51.908;8.364;2023-12-20T14:38:49;8.80;80.30
66140;DHT22;52945;51.908;8.364;2023-12-20T14:41:50;8.70;80.60
66140;DHT22;52945;51.908;8.364;2023-12-20T14:44:51;8.70;80.70
66140;DHT22;52945;51.908;8.364;2023-12-20T14:47:52;8.60;80.70
66140;DHT22;52945;51.908;8.364;2023-12-20T14:50:53;8.70;80.80
66140;DHT22;52945;51.908;8.364;2023-12-20T14:53:54;8.70;80.70
66140;DHT22;52945;51.908;8.364;2023-12-20T14:56:54;8.60;81.00
66140;DHT22;52945;51.908;8.364;2023-12-20T14:59:56;8.60;81.00
66140;DHT22;52945;51.908;8.364;2023-12-20T15:02:57;8.60;80.40
66140;DHT22;52945;51.908;8.364;2023-12-20T15:05:57;8.60;80.80
66140;DHT22;52945;51.908;8.364;2023-12-20T15:08:59;8.50;81.10
66140;DHT22;52945;51.908;8.364;2023-12-20T15:12:00;8.60;81.10
66140;DHT22;52945;51.908;8.364;2023-12-20T15:15:01;8.60;81.10
66140;DHT22;52945;51.908;8.364;2023-12-20T15:18:01;8.60;81.30
66140;DHT22;52945;51.908;8.364;2023-12-20T15:21:04;8.60;81.40
66140;DHT22;52945;51.908;8.364;2023-12-20T15:24:06;8.60;81.50
66140;DHT22;52945;51.908;8.364;2023-12-20T15:27:13;8.60;81.60
66140;DHT22;52945;51.908;8.364;2023-12-20T15:30:14;8.60;81.60
66140;DHT22;52945;51.908;8.364;2023-12-20T15:33:14;8.60;81.60
66140;DHT22;52945;51.908;8.364;2023-12-20T15:36:15;8.60;81.50
66140;DHT22;52945;51.908;8.364;2023-12-20T15:39:16;8.60;81.50
66140;DHT22;52945;51.908;8.364;2023-12-20T15:42:16;8.60;81.60
66140;DHT22;52945;51.908;8.364;2023-12-20T15:45:17;8.60;82.00
66140;DHT22;52945;51.908;8.364;2023-12-20T15:48:18;8.60;82.20
66140;DHT22;52945;51.908;8.364;2023-12-20T15:51:21;8.70;82.30
66140;DHT22;52945;51.908;8.364;2023-12-20T15:54:22;8.60;82.50
66140;DHT22;52945;51.908;8.364;2023-12-20T15:57:22;8.70;82.40
66140;DHT22;52945;51.908;8.364;2023-12-20T16:00:23;8.70;82.60
66140;DHT22;52945;51.908;8.364;2023-12-20T16:03:24;8.70;82.50
66140;DHT22;52945;51.908;8.364;2023-12-20T16:06:24;8.70;82.60
66140;DHT22;52945;51.908;8.364;2023-12-20T16:09:25;8.70;82.50
66140;DHT22;52945;51.908;8.364;2023-12-20T16:12:25;8.70;82.50
66140;DHT22;52945;51.908;8.364;2023-12-20T16:15:26;8.80;82.30
66140;DHT22;52945;51.908;8.364;2023-12-20T16:18:26;8.70;82.50
66140;DHT22;52945;51.908;8.364;2023-12-20T16:21:28;8.80;82.30
66140;DHT22;52945;51.908;8.364;2023-12-20T16:24:29;8.80;82.30
66140;DHT22;52945;51.908;8.364;2023-12-20T16:27:31;8.80;82.40
66140;DHT22;52945;51.908;8.364;2023-12-20T16:30:32;8.90;82.20
66140;DHT22;52945;51.908;8.364;2023-12-20T16:33:32;8.90;82.20
66140;DHT22;52945;51.908;8.364;2023-12-20T16:36:53;8.80;82.40
66140;DHT22;52945;51.908;8.364;2023-12-20T16:39:54;9.00;82.30
66140;DHT22;52945;51.908;8.364;2023-12-20T16:42:55;9.00;82.20
66140;DHT22;52945;51.908;8.364;2023-12-20T16:45:58;9.00;82.40
66140;DHT22;52945;51.908;8.364;2023-12-20T16:48:59;8.90;82.30
66140;DHT22;52945;51.908;8.364;2023-12-20T16:52:00;8.90;82.50
66140;DHT22;52945;51.908;8.364;2023-12-20T16:55:00;9.00;82.60
66140;DHT22;52945;51.908;8.364;2023-12-20T16:58:01;9.00;82.60
66140;DHT22;52945;51.908;8.364;2023-12-20T17:01:02;9.00;82.60
66140;DHT22;52945;51.908;8.364;2023-12-20T17:04:02;9.00;82.60
66140;DHT22;52945;51.908;8.364;2023-12-20T17:07:03;9.00;82.40
66140;DHT22;52945;51.908;8.364;2023-12-20T17:10:04;8.90;82.70
66140;DHT22;52945;51.908;8.364;2023-12-20T17:13:07;9.00;82.00
66140;DHT22;52945;51.908;8.364;2023-12-20T17:16:08;9.00;82.10
66140;DHT22;52945;51.908;8.364;2023-12-20T17:19:09;9.00;82.10
66140;DHT22;52945;51.908;8.364;2023-12-20T17:22:09;9.10;82.00
66140;DHT22;52945;51.908;8.364;2023-12-20T17:25:10;9.10;81.80
66140;DHT22;52945;51.908;8.364;2023-12-20T17:28:11;9.00;81.70
66140;DHT22;52945;51.908;8.364;2023-12-20T17:31:12;9.10;81.80
66140;DHT22;52945;51.908;8.364;2023-12-20T17:34:13;9.10;81.70
66140;DHT22;52945;51.908;8.364;2023-12-20T17:37:13;9.10;81.50
66140;DHT22;52945;51.908;8.364;2023-12-20T17:40:14;9.10;81.60
66140;DHT22;52945;51.908;8.364;2023-12-20T17:43:15;9.10;81.70
66140;DHT22;52945;51.908;8.364;2023-12-20T17:46:16;9.00;81.90
66140;DHT22;52945;51.908;8.364;2023-12-20T17:49:16;9.10;81.90
66140;DHT22;52945;51.908;8.364;2023-12-20T17:52:19;9.10;81.70
66140;DHT22;52945;51.908;8.364;2023-12-20T17:55:20;9.10;81.80
66140;DHT22;52945;51.908;8.364;2023-12-20T17:58:21;9.10;81.70
66140;DHT22;52945;51.908;8.364;2023-12-20T18:01:21;9.20;81.60
66140;DHT22;52945;51.908;8.364;2023-12-20T18:04:22;9.10;81.70
66140;DHT22;52945;51.908;8.364;2023-12-20T18:07:24;9.20;81.60
66140;DHT22;52945;51.908;8.364;2023-12-20T18:10:25;9.20;81.60
66140;DHT22;52945;51.908;8.364;2023-12-20T18:13:26;9.20;81.70
66140;DHT22;52945;51.908;8.364;2023-12-20T18:16:26;9.10;81.70
66140;DHT22;52945;51.908;8.364;2023-12-20T18:19:27;9.20;81.80
66140;DHT22;52945;51.908;8.364;2023-12-20T18:22:27;9.20;81.70
66140;DHT22;52945;51.908;8.364;2023-12-20T18:25:28;9.20;81.70
66140;DHT22;52945;51.908;8.364;2023-12-20T18:28:30;9.30;81.70
66140;DHT22;52945;51.908;8.364;2023-12-20T18:31:30;9.20;81.80
66140;DHT22;52945;51.908;8.364;2023-12-20T18:34:31;9.20;81.80
66140;DHT22;52945;51.908;8.364;2023-12-20T18:37:34;9.20;82.00
66140;DHT22;52945;51.908;8.364;2023-12-20T18:40:35;9.20;82.00
66140;DHT22;52945;51.908;8.364;2023-12-20T18:43:36;9.20;81.90
66140;DHT22;52945;51.908;8.364;2023-12-20T18:46:36;9.20;81.90
66140;DHT22;52945;51.908;8.364;2023-12-20T18:49:37;9.20;82.20
66140;DHT22;52945;51.908;8.364;2023-12-20T18:52:39;9.20;82.00
66140;DHT22;52945;51.908;8.364;2023-12-20T18:55:40;9.20;82.20
66140;DHT22;52945;51.908;8.364;2023-12-20T18:58:40;9.30;82.20
66140;DHT22;52945;51.908;8.364;2023-12-20T19:01:45;9.30;82.10
66140;DHT22;52945;51.908;8.364;2023-12-20T19:04:46;9.20;82.10
66140;DHT22;52945;51.908;8.364;2023-12-20T19:07:47;9.20;82.10
66140;DHT22;52945;51.908;8.364;2023-12-20T19:10:47;9.20;82.30
66140;DHT22;52945;51.908;8.364;2023-12-20T19:13:48;9.20;82.40
66140;DHT22;52945;51.908;8.364;2023-12-20T19:16:49;9.20;82.20
66140;DHT22;52945;51.908;8.364;2023-12-20T19:19:50;9.20;82.40
66140;DHT22;52945;51.908;8.364;2023-12-20T19:22:51;9.20;82.40